createdAt,value
2018-08-04T00:01:20.830Z,23.00
2018-08-04T00:06:18.857Z,23.00
2018-08-04T00:08:48.160Z,23.00
2018-08-04T00:11:17.199Z,23.00
2018-08-04T00:16:14.708Z,23.00
2018-08-04T00:18:43.614Z,23.00
2018-08-04T00:21:12.539Z,23.00
2018-08-04T00:23:41.774Z,23.00
2018-08-04T00:26:10.667Z,23.00
2018-08-04T00:28:39.564Z,22.90
2018-08-04T00:31:08.475Z,22.90
2018-08-04T00:33:37.367Z,22.90
2018-08-04T00:36:06.258Z,22.80
2018-08-04T00:38:35.168Z,22.80
2018-08-04T00:41:04.109Z,22.80
2018-08-04T00:43:33.009Z,22.80
2018-08-04T00:46:01.906Z,22.70
2018-08-04T00:48:30.760Z,22.70
2018-08-04T00:50:59.682Z,22.70
2018-08-04T00:53:28.586Z,22.60
2018-08-04T00:55:57.790Z,22.60
2018-08-04T00:58:26.683Z,22.60
2018-08-04T01:00:55.618Z,22.60
2018-08-04T01:03:24.537Z,22.60
2018-08-04T01:05:53.458Z,22.50
2018-08-04T01:08:22.356Z,22.50
2018-08-04T01:10:51.591Z,22.50
2018-08-04T01:15:49.087Z,22.50
2018-08-04T01:18:18.020Z,22.40
2018-08-04T01:20:46.883Z,22.40
2018-08-04T01:23:15.772Z,22.40
2018-08-04T01:25:44.702Z,22.40
2018-08-04T01:28:13.559Z,22.30
2018-08-04T01:30:42.858Z,22.30
2018-08-04T01:33:11.744Z,22.30
2018-08-04T01:35:40.653Z,22.20
2018-08-04T01:38:09.579Z,22.20
2018-08-04T01:43:07.112Z,22.10
2018-08-04T01:45:36.018Z,22.00
2018-08-04T01:48:04.885Z,21.90
2018-08-04T01:50:33.908Z,21.90
2018-08-04T01:53:02.813Z,21.80
2018-08-04T01:55:31.687Z,21.80
2018-08-04T01:58:00.604Z,21.70
2018-08-04T02:00:29.483Z,21.70
2018-08-04T02:02:58.672Z,21.70
2018-08-04T02:05:27.579Z,21.60
2018-08-04T02:07:56.479Z,21.60
2018-08-04T02:13:02.426Z,21.50
2018-08-04T02:15:31.273Z,21.40
2018-08-04T02:18:00.213Z,21.40
2018-08-04T02:20:29.099Z,21.40
2018-08-04T02:22:58.277Z,21.30
2018-08-04T02:25:27.230Z,21.30
2018-08-04T02:27:56.192Z,21.20
2018-08-04T02:30:25.750Z,21.20
2018-08-04T02:32:54.666Z,21.10
2018-08-04T02:35:23.868Z,21.10
2018-08-04T02:37:52.908Z,21.10
2018-08-04T02:40:21.976Z,21.00
2018-08-04T02:42:50.824Z,21.00
2018-08-04T02:45:19.689Z,21.00
2018-08-04T02:50:17.636Z,21.00
2018-08-04T02:52:46.520Z,20.90
2018-08-04T02:55:15.589Z,20.80
2018-08-04T03:00:13.838Z,20.80
2018-08-04T03:02:42.734Z,20.80
2018-08-04T03:05:11.606Z,20.80
2018-08-04T03:07:40.491Z,20.80
2018-08-04T03:10:09.406Z,20.70
2018-08-04T03:12:38.337Z,20.70
2018-08-04T03:15:07.616Z,20.70
2018-08-04T03:17:36.515Z,20.70
2018-08-04T03:20:06.549Z,20.70
2018-08-04T03:22:35.675Z,20.60
2018-08-04T03:25:04.661Z,20.60
2018-08-04T03:27:33.543Z,20.60
2018-08-04T03:30:02.451Z,20.50
2018-08-04T03:34:59.990Z,20.50
2018-08-04T03:37:28.986Z,20.50
2018-08-04T03:39:57.850Z,20.40
2018-08-04T03:42:26.703Z,20.40
2018-08-04T03:44:55.543Z,20.40
2018-08-04T03:47:24.389Z,20.30
2018-08-04T03:49:53.250Z,20.30
2018-08-04T03:52:22.143Z,20.30
2018-08-04T03:54:51.022Z,20.30
2018-08-04T03:57:19.896Z,20.30
2018-08-04T03:59:48.822Z,20.20
2018-08-04T04:02:17.821Z,20.20
2018-08-04T04:04:46.692Z,20.20
2018-08-04T04:07:15.735Z,20.10
2018-08-04T04:09:44.683Z,20.10
2018-08-04T04:12:13.601Z,20.10
2018-08-04T04:14:42.495Z,20.00
2018-08-04T04:17:11.420Z,20.00
2018-08-04T04:19:40.285Z,20.00
2018-08-04T04:22:09.207Z,20.00
2018-08-04T04:24:38.128Z,20.00
2018-08-04T04:27:07.066Z,20.00
2018-08-04T04:29:35.928Z,20.00
2018-08-04T04:34:34.285Z,20.00
2018-08-04T04:37:03.230Z,20.00
2018-08-04T04:39:32.147Z,20.00
2018-08-04T04:42:01.074Z,20.00
2018-08-04T04:44:30.441Z,20.00
2018-08-04T04:46:59.319Z,20.10
2018-08-04T04:49:28.487Z,20.10
2018-08-04T04:51:57.369Z,20.10
2018-08-04T04:54:26.330Z,20.10
2018-08-04T04:56:55.239Z,20.20
2018-08-04T04:59:24.308Z,20.20
2018-08-04T05:01:52.902Z,20.20
2018-08-04T05:04:21.961Z,20.20
2018-08-04T05:06:50.821Z,20.30
2018-08-04T05:09:19.723Z,20.30
2018-08-04T05:11:48.592Z,20.30
2018-08-04T05:14:17.572Z,20.40
2018-08-04T05:19:15.611Z,20.40
2018-08-04T05:21:44.571Z,20.50
2018-08-04T05:26:42.596Z,20.60
2018-08-04T05:29:11.496Z,20.70
2018-08-04T05:31:40.752Z,20.70
2018-08-04T05:34:09.705Z,20.90
2018-08-04T05:36:38.612Z,21.00
2018-08-04T05:39:09.265Z,21.10
2018-08-04T05:41:38.135Z,21.30
2018-08-04T05:44:07.694Z,21.40
2018-08-04T05:46:36.827Z,21.50
2018-08-04T05:49:05.779Z,21.60
2018-08-04T05:51:35.019Z,21.80
2018-08-04T05:56:32.903Z,22.00
2018-08-04T05:59:01.773Z,22.20
2018-08-04T06:01:30.396Z,22.30
2018-08-04T06:03:59.308Z,22.40
2018-08-04T06:06:28.158Z,22.50
2018-08-04T06:08:57.039Z,22.60
2018-08-04T06:11:25.911Z,22.70
2018-08-04T06:13:54.919Z,22.90
2018-08-04T06:16:23.802Z,23.10
2018-08-04T06:18:53.107Z,23.30
2018-08-04T06:21:21.999Z,23.40
2018-08-04T06:23:50.869Z,23.60
2018-08-04T06:26:19.841Z,23.70
2018-08-04T06:31:17.382Z,23.90
2018-08-04T06:33:47.577Z,24.10
2018-08-04T06:36:16.818Z,24.20
2018-08-04T06:38:45.761Z,24.30
2018-08-04T06:41:14.620Z,24.50
2018-08-04T06:43:43.536Z,24.60
2018-08-04T06:46:12.525Z,24.60
2018-08-04T06:50:10.599Z,24.70
2018-08-04T06:52:39.514Z,24.80
2018-08-04T06:55:08.795Z,24.80
2018-08-04T06:57:37.657Z,24.80
2018-08-04T07:00:07.077Z,24.80
2018-08-04T07:02:35.991Z,24.80
2018-08-04T07:05:05.196Z,24.80
2018-08-04T07:07:34.130Z,24.90
2018-08-04T07:10:03.379Z,25.00
2018-08-04T07:12:32.294Z,25.10
2018-08-04T07:15:01.195Z,25.10
2018-08-04T07:17:30.104Z,25.30
2018-08-04T07:19:59.066Z,25.20
2018-08-04T07:22:28.300Z,25.10
2018-08-04T07:24:57.374Z,25.10
2018-08-04T07:27:26.252Z,25.30
2018-08-04T07:29:55.134Z,25.40
2018-08-04T07:32:24.102Z,25.50
2018-08-04T07:34:53.053Z,25.60
2018-08-04T07:39:50.789Z,25.80
2018-08-04T07:42:19.676Z,25.70
2018-08-04T07:44:48.672Z,25.80
2018-08-04T07:47:17.603Z,25.80
2018-08-04T07:49:46.642Z,25.90
2018-08-04T07:52:15.822Z,26.00
2018-08-04T07:54:44.954Z,26.20
2018-08-04T07:57:13.853Z,26.40
2018-08-04T07:59:42.847Z,26.50
2018-08-04T08:02:11.518Z,26.60
2018-08-04T08:04:40.476Z,26.80
2018-08-04T08:07:09.476Z,26.90
2018-08-04T08:09:38.674Z,27.00
2018-08-04T08:12:07.737Z,27.20
2018-08-04T08:14:36.696Z,27.30
2018-08-04T08:17:05.848Z,27.40
2018-08-04T08:19:34.798Z,27.50
2018-08-04T08:22:03.859Z,27.60
2018-08-04T08:24:32.783Z,27.50
2018-08-04T08:29:30.525Z,27.40
2018-08-04T08:31:59.805Z,27.40
2018-08-04T08:34:28.782Z,27.40
2018-08-04T08:36:57.732Z,27.40
2018-08-04T08:39:26.594Z,27.40
2018-08-04T08:41:55.470Z,27.40
2018-08-04T08:44:24.501Z,27.30
2018-08-04T08:46:53.528Z,27.40
2018-08-04T08:49:22.516Z,27.40
2018-08-04T08:51:51.437Z,27.30
2018-08-04T08:54:20.313Z,27.40
2018-08-04T08:56:49.576Z,27.40
2018-08-04T08:59:18.773Z,27.40
2018-08-04T09:01:47.607Z,27.40
2018-08-04T09:04:16.542Z,27.50
2018-08-04T09:06:45.431Z,27.60
2018-08-04T09:09:14.351Z,27.70
2018-08-04T09:11:42.996Z,27.80
2018-08-04T09:14:11.949Z,28.00
2018-08-04T09:16:40.556Z,28.10
2018-08-04T09:19:09.254Z,28.30
2018-08-04T09:21:37.904Z,28.30
2018-08-04T09:24:06.629Z,28.30
2018-08-04T09:26:35.279Z,28.40
2018-08-04T09:29:03.905Z,28.40
2018-08-04T09:31:32.552Z,28.40
2018-08-04T09:34:01.522Z,28.40
2018-08-04T09:36:30.231Z,28.50
2018-08-04T09:38:59.581Z,28.50
2018-08-04T09:41:28.187Z,28.60
2018-08-04T09:43:56.891Z,28.60
2018-08-04T09:46:25.824Z,28.50
2018-08-04T09:48:54.495Z,28.40
2018-08-04T09:51:23.443Z,28.40
2018-08-04T09:53:52.123Z,28.40
2018-08-04T09:56:20.738Z,28.50
2018-08-04T09:58:49.376Z,28.60
2018-08-04T10:01:23.400Z,28.80
2018-08-04T10:03:52.080Z,29.00
2018-08-04T10:06:20.706Z,29.30
2018-08-04T10:08:49.403Z,29.40
2018-08-04T10:11:18.077Z,29.50
2018-08-04T10:13:46.891Z,29.60
2018-08-04T10:16:15.535Z,29.80
2018-08-04T10:18:44.303Z,29.70
2018-08-04T10:21:12.937Z,29.40
2018-08-04T10:23:41.933Z,29.20
2018-08-04T10:26:10.772Z,29.10
2018-08-04T10:28:39.336Z,28.90
2018-08-04T10:31:08.202Z,28.90
2018-08-04T10:33:37.306Z,28.90
2018-08-04T10:36:06.228Z,28.90
2018-08-04T10:38:34.814Z,28.90
2018-08-04T10:41:03.651Z,28.90
2018-08-04T10:43:32.337Z,28.80
2018-08-04T10:46:00.948Z,28.80
2018-08-04T10:48:29.581Z,28.90
2018-08-04T10:50:58.159Z,28.90
2018-08-04T10:53:26.756Z,28.90
2018-08-04T10:55:55.417Z,28.90
2018-08-04T10:58:24.370Z,29.00
2018-08-04T11:00:53.212Z,28.90
2018-08-04T11:03:21.847Z,28.90
2018-08-04T11:05:50.467Z,28.70
2018-08-04T11:08:19.120Z,28.60
2018-08-04T11:10:47.784Z,28.50
2018-08-04T11:13:16.593Z,28.40
2018-08-04T11:15:45.209Z,28.50
2018-08-04T11:18:13.856Z,28.40
2018-08-04T11:20:42.666Z,28.50
2018-08-04T11:23:11.656Z,28.50
2018-08-04T11:25:40.266Z,28.50
2018-08-04T11:28:08.860Z,28.50
2018-08-04T11:30:37.479Z,28.50
2018-08-04T11:33:06.191Z,28.40
2018-08-04T11:35:34.827Z,28.50
2018-08-04T11:38:03.486Z,28.60
2018-08-04T11:40:32.143Z,28.50
2018-08-04T11:43:00.764Z,28.50
2018-08-04T11:45:29.374Z,28.50
2018-08-04T11:47:58.191Z,28.60
2018-08-04T11:50:27.299Z,28.60
2018-08-04T11:52:55.898Z,28.70
2018-08-04T11:55:24.528Z,28.80
2018-08-04T11:57:53.186Z,28.80
2018-08-04T12:00:21.794Z,28.70
2018-08-04T12:02:50.631Z,28.90
2018-08-04T12:05:19.224Z,29.00
2018-08-04T12:07:48.037Z,28.90
2018-08-04T12:10:18.078Z,28.90
2018-08-04T12:12:48.001Z,28.80
2018-08-04T12:15:16.771Z,28.70
2018-08-04T12:17:45.737Z,28.70
2018-08-04T12:20:14.430Z,28.90
2018-08-04T12:25:11.358Z,29.00
2018-08-04T12:27:40.340Z,29.00
2018-08-04T12:30:09.462Z,29.10
2018-08-04T12:32:38.240Z,29.10
2018-08-04T12:35:07.834Z,29.00
2018-08-04T12:37:36.485Z,29.10
2018-08-04T12:40:05.561Z,29.10
2018-08-04T12:42:34.281Z,28.90
2018-08-04T12:45:03.218Z,28.60
2018-08-04T12:47:31.850Z,28.60
2018-08-04T12:50:00.431Z,28.50
2018-08-04T12:52:29.024Z,28.10
2018-08-04T12:54:57.638Z,28.20
2018-08-04T12:57:26.278Z,28.00
2018-08-04T12:59:55.025Z,28.00
2018-08-04T13:02:23.599Z,27.90
2018-08-04T13:04:52.455Z,27.80
2018-08-04T13:07:21.161Z,27.80
2018-08-04T13:09:49.781Z,27.80
2018-08-04T13:12:18.387Z,27.80
2018-08-04T13:14:47.003Z,27.90
2018-08-04T13:17:15.752Z,28.00
2018-08-04T13:19:45.480Z,28.10
2018-08-04T13:22:14.089Z,28.00
2018-08-04T13:24:42.730Z,27.90
2018-08-04T13:27:11.273Z,27.90
2018-08-04T13:29:39.905Z,27.90
2018-08-04T13:32:08.541Z,28.00
2018-08-04T13:34:37.455Z,28.10
2018-08-04T13:37:06.596Z,28.10
2018-08-04T13:39:35.290Z,28.20
2018-08-04T13:42:04.225Z,28.20
2018-08-04T13:44:32.783Z,28.10
2018-08-04T13:47:01.399Z,28.10
2018-08-04T13:49:29.984Z,28.00
2018-08-04T13:51:58.980Z,27.90
2018-08-04T13:57:21.074Z,28.10
2018-08-04T13:59:49.681Z,28.10
2018-08-04T14:02:18.351Z,28.00
2018-08-04T14:04:46.948Z,27.90
2018-08-04T14:07:15.520Z,27.80
2018-08-04T14:09:44.495Z,27.70
2018-08-04T14:12:13.110Z,27.50
2018-08-04T14:14:41.713Z,27.30
2018-08-04T14:17:10.298Z,27.30
2018-08-04T14:19:39.109Z,27.10
2018-08-04T14:22:07.661Z,27.10
2018-08-04T14:24:36.242Z,26.90
2018-08-04T14:27:05.264Z,26.70
2018-08-04T14:29:34.234Z,26.50
2018-08-04T14:32:03.178Z,26.30
2018-08-04T14:34:32.048Z,25.90
2018-08-04T14:37:00.957Z,25.60
2018-08-04T14:39:29.795Z,25.60
2018-08-04T14:41:58.698Z,25.60
2018-08-04T14:44:27.578Z,25.60
2018-08-04T14:49:25.107Z,25.70
2018-08-04T14:51:54.018Z,25.50
2018-08-04T14:54:22.908Z,25.40
2018-08-04T14:56:51.852Z,25.40
2018-08-04T14:59:20.856Z,25.40
2018-08-04T15:01:49.658Z,25.30
2018-08-04T15:04:18.729Z,25.30
2018-08-04T15:06:49.037Z,25.20
2018-08-04T15:09:17.927Z,25.30
2018-08-04T15:11:46.887Z,25.30
2018-08-04T15:14:15.918Z,25.40
2018-08-04T15:16:44.906Z,25.30
2018-08-04T15:19:13.859Z,25.30
2018-08-04T15:21:42.839Z,25.20
2018-08-04T15:24:11.944Z,25.10
2018-08-04T15:26:40.941Z,24.90
2018-08-04T15:29:09.848Z,24.80
2018-08-04T15:31:38.774Z,24.70
2018-08-04T15:34:07.674Z,24.70
2018-08-04T15:36:36.787Z,25.00
2018-08-04T15:39:08.100Z,24.90
2018-08-04T15:41:37.039Z,24.90
2018-08-04T15:44:05.978Z,24.80
2018-08-04T15:49:03.769Z,24.30
2018-08-04T15:54:01.256Z,24.40
2018-08-04T15:58:59.110Z,24.70
2018-08-04T16:01:27.679Z,25.00
2018-08-04T16:03:56.673Z,25.30
2018-08-04T16:06:25.567Z,25.60
2018-08-04T16:08:54.446Z,25.90
2018-08-04T16:11:23.862Z,25.80
2018-08-04T16:13:52.742Z,25.60
2018-08-04T16:16:21.626Z,25.70
2018-08-04T16:18:51.148Z,25.90
2018-08-04T16:21:20.052Z,25.90
2018-08-04T16:23:48.690Z,25.90
2018-08-04T16:26:17.626Z,26.20
2018-08-04T16:28:46.252Z,26.30
2018-08-04T16:31:17.999Z,26.50
2018-08-04T16:33:46.701Z,26.80
2018-08-04T16:36:15.494Z,27.10
2018-08-04T16:38:44.077Z,27.50
2018-08-04T16:41:12.665Z,28.00
2018-08-04T16:43:41.286Z,28.20
2018-08-04T16:46:09.974Z,28.30
2018-08-04T16:48:38.635Z,28.50
2018-08-04T16:51:07.649Z,28.50
2018-08-04T16:53:36.211Z,28.70
2018-08-04T16:56:04.902Z,28.80
2018-08-04T16:58:33.505Z,28.70
2018-08-04T17:01:01.848Z,28.60
2018-08-04T17:03:30.415Z,28.30
2018-08-04T17:05:59.014Z,28.00
2018-08-04T17:08:27.605Z,27.50
2018-08-04T17:10:56.464Z,27.30
2018-08-04T17:13:25.008Z,26.80
2018-08-04T17:15:53.593Z,26.40
2018-08-04T17:18:22.533Z,26.10
2018-08-04T17:20:51.597Z,25.90
2018-08-04T17:23:20.481Z,25.60
2018-08-04T17:25:49.379Z,25.30
2018-08-04T17:28:18.254Z,25.00
2018-08-04T17:30:47.147Z,24.80
2018-08-04T17:33:16.023Z,24.50
2018-08-04T17:35:44.855Z,24.20
2018-08-04T17:38:13.730Z,23.90
2018-08-04T17:40:42.662Z,23.60
2018-08-04T17:43:11.563Z,23.50
2018-08-04T17:45:40.407Z,23.40
2018-08-04T17:48:09.631Z,23.30
2018-08-04T17:50:38.522Z,23.20
2018-08-04T17:53:07.707Z,23.10
2018-08-04T17:55:36.643Z,23.00
2018-08-04T17:58:05.904Z,22.90
2018-08-04T18:00:35.806Z,22.80
2018-08-04T18:03:04.732Z,22.60
2018-08-04T18:05:33.618Z,22.50
2018-08-04T18:08:02.598Z,22.30
2018-08-04T18:10:31.544Z,22.20
2018-08-04T18:13:00.716Z,22.00
2018-08-04T18:15:29.908Z,21.90
2018-08-04T18:17:58.828Z,21.80
2018-08-04T18:20:27.814Z,21.70
2018-08-04T18:22:56.692Z,21.60
2018-08-04T18:25:25.632Z,21.50
2018-08-04T18:27:54.518Z,21.50
2018-08-04T18:30:23.799Z,21.30
2018-08-04T18:32:52.660Z,21.30
2018-08-04T18:35:21.552Z,21.20
2018-08-04T18:37:50.479Z,21.10
2018-08-04T18:40:19.582Z,20.90
2018-08-04T18:42:48.439Z,20.90
2018-08-04T18:45:17.674Z,20.80
2018-08-04T18:47:47.175Z,20.80
2018-08-04T18:50:16.076Z,20.70
2018-08-04T18:52:45.013Z,20.70
2018-08-04T18:55:13.874Z,20.70
2018-08-04T18:57:42.752Z,20.70
2018-08-04T19:00:11.615Z,20.70
2018-08-04T19:02:40.211Z,20.60
2018-08-04T19:05:09.404Z,20.60
2018-08-04T19:07:38.323Z,20.50
2018-08-04T19:10:07.549Z,20.40
2018-08-04T19:12:36.787Z,20.30
2018-08-04T19:15:06.035Z,20.30
2018-08-04T19:17:34.953Z,20.20
2018-08-04T19:20:03.994Z,20.20
2018-08-04T19:22:32.941Z,20.20
2018-08-04T19:25:01.843Z,20.20
2018-08-04T19:27:30.767Z,20.10
2018-08-04T19:29:59.632Z,20.10
2018-08-04T19:32:28.535Z,20.00
2018-08-04T19:34:57.435Z,19.90
2018-08-04T19:37:26.334Z,19.90
2018-08-04T19:39:55.179Z,19.90
2018-08-04T19:42:24.090Z,19.90
2018-08-04T19:44:52.983Z,19.90
2018-08-04T19:47:21.874Z,19.90
2018-08-04T19:49:51.090Z,19.90
2018-08-04T19:52:20.014Z,20.00
2018-08-04T19:54:48.917Z,20.00
2018-08-04T19:57:18.142Z,20.00
2018-08-04T19:59:47.160Z,20.00
2018-08-04T20:02:16.108Z,20.00
2018-08-04T20:04:45.014Z,19.90
2018-08-04T20:07:13.898Z,19.90
2018-08-04T20:09:42.795Z,20.00
2018-08-04T20:12:11.703Z,20.00
2018-08-04T20:14:40.743Z,20.00
2018-08-04T20:17:09.728Z,20.00
2018-08-04T20:19:38.761Z,20.00
2018-08-04T20:22:11.781Z,19.90
2018-08-04T20:24:40.691Z,19.90
2018-08-04T20:27:09.542Z,19.80
2018-08-04T20:29:38.486Z,19.90
2018-08-04T20:32:08.047Z,19.80
2018-08-04T20:34:36.950Z,19.90
2018-08-04T20:37:05.918Z,19.80
2018-08-04T20:39:34.793Z,19.90
2018-08-04T20:42:04.043Z,19.90
2018-08-04T20:44:33.106Z,19.90
2018-08-04T20:47:02.218Z,19.90
2018-08-04T20:49:31.124Z,19.90
2018-08-04T20:52:00.049Z,19.90
2018-08-04T20:54:28.902Z,19.90
2018-08-04T20:56:57.830Z,19.90
2018-08-04T20:59:26.866Z,19.80
2018-08-04T21:02:01.458Z,19.90
2018-08-04T21:04:31.694Z,19.90
2018-08-04T21:07:01.102Z,19.80
2018-08-04T21:09:31.085Z,19.80
2018-08-04T21:12:00.326Z,19.70
2018-08-04T21:14:30.340Z,19.70
2018-08-04T21:17:00.054Z,19.60
2018-08-04T21:19:29.292Z,19.60
2018-08-04T21:21:58.813Z,19.60
2018-08-04T21:24:28.028Z,19.50
2018-08-04T21:26:57.279Z,19.50
2018-08-04T21:29:26.237Z,19.50
2018-08-04T21:31:58.288Z,19.50
2018-08-04T21:34:27.859Z,19.40
2018-08-04T21:36:57.049Z,19.40
2018-08-04T21:39:26.243Z,19.40
2018-08-04T21:41:55.443Z,19.40
2018-08-04T21:44:24.758Z,19.30
2018-08-04T21:46:53.830Z,19.30
2018-08-04T21:51:51.890Z,19.30
2018-08-04T21:57:17.766Z,19.20
2018-08-04T21:59:46.651Z,19.20
2018-08-04T22:02:15.560Z,19.20
2018-08-04T22:04:44.874Z,19.20
2018-08-04T22:07:50.497Z,19.20
2018-08-04T22:10:19.500Z,19.20
2018-08-04T22:12:48.518Z,19.20
2018-08-04T22:15:17.518Z,19.20
2018-08-04T22:17:47.127Z,19.20
2018-08-04T22:20:17.224Z,19.20
2018-08-04T22:22:46.188Z,19.20
2018-08-04T22:25:16.778Z,19.20
2018-08-04T22:27:45.698Z,19.10
2018-08-04T22:30:15.716Z,19.20
2018-08-04T22:32:45.144Z,19.10
2018-08-04T22:35:14.052Z,19.10
2018-08-04T22:37:43.247Z,19.10
2018-08-04T22:40:13.499Z,19.10
2018-08-04T22:42:42.853Z,19.00
2018-08-04T22:45:51.975Z,19.00
2018-08-04T22:48:21.422Z,19.00
2018-08-04T22:50:50.720Z,18.90
2018-08-04T22:55:49.802Z,18.90
2018-08-04T22:58:18.749Z,18.90
2018-08-04T23:00:48.015Z,18.90
2018-08-04T23:03:26.531Z,18.80
2018-08-04T23:05:55.843Z,18.80
2018-08-04T23:08:25.294Z,18.80
2018-08-04T23:10:54.808Z,18.80
2018-08-04T23:13:24.415Z,18.80
2018-08-04T23:15:53.489Z,18.70
2018-08-04T23:20:52.740Z,18.70
2018-08-04T23:23:21.671Z,18.70
2018-08-04T23:25:50.896Z,18.70
2018-08-04T23:28:20.022Z,18.70
2018-08-04T23:30:48.952Z,18.70
2018-08-04T23:33:17.892Z,18.70
2018-08-04T23:35:47.157Z,18.70
2018-08-04T23:38:16.242Z,18.70
2018-08-04T23:40:45.461Z,18.60
2018-08-04T23:43:14.358Z,18.60
2018-08-04T23:45:43.281Z,18.50
2018-08-04T23:48:12.174Z,18.50
2018-08-04T23:50:41.451Z,18.50
2018-08-04T23:53:10.335Z,18.50
2018-08-04T23:55:39.267Z,18.50
2018-08-04T23:58:08.167Z,18.50
